createdAt,value
2023-05-20T00:02:25.161Z,2.00
2023-05-20T00:05:27.011Z,2.25
2023-05-20T00:08:28.617Z,2.17
2023-05-20T00:11:30.318Z,2.33
2023-05-20T00:14:32.004Z,2.00
2023-05-20T00:17:34.155Z,2.10
2023-05-20T00:20:35.856Z,2.10
2023-05-20T00:23:37.456Z,2.17
2023-05-20T00:26:39.140Z,2.55
2023-05-20T00:29:40.705Z,1.98
2023-05-20T00:32:42.501Z,2.20
2023-05-20T00:35:45.381Z,2.63
2023-05-20T00:38:47.050Z,2.25
2023-05-20T00:41:48.731Z,2.42
2023-05-20T00:44:50.809Z,2.15
2023-05-20T00:47:52.540Z,2.33
2023-05-20T00:50:54.321Z,2.03
2023-05-20T00:53:56.230Z,2.20
2023-05-20T00:56:59.431Z,2.53
2023-05-20T01:03:03.000Z,2.42
2023-05-20T01:06:04.676Z,2.60
2023-05-20T01:09:06.345Z,3.13
2023-05-20T01:12:17.097Z,2.53
2023-05-20T01:15:20.103Z,2.70
2023-05-20T01:18:25.584Z,2.50
2023-05-20T01:21:27.833Z,2.45
2023-05-20T01:24:29.456Z,2.60
2023-05-20T01:27:31.555Z,2.50
2023-05-20T01:30:39.580Z,2.55
2023-05-20T01:33:43.576Z,2.67
2023-05-20T01:36:46.720Z,2.72
2023-05-20T01:42:53.649Z,2.70
2023-05-20T01:45:55.433Z,2.55
2023-05-20T01:48:57.020Z,2.35
2023-05-20T01:51:59.146Z,2.72
2023-05-20T01:55:00.960Z,2.70
2023-05-20T01:58:02.953Z,2.70
2023-05-20T02:01:04.778Z,2.53
2023-05-20T02:04:06.498Z,2.78
2023-05-20T02:07:08.290Z,2.53
2023-05-20T02:10:10.453Z,2.92
2023-05-20T02:13:12.326Z,2.67
2023-05-20T02:16:14.533Z,2.97
2023-05-20T02:19:23.587Z,2.92
2023-05-20T02:22:25.513Z,3.40
2023-05-20T02:25:27.092Z,2.70
2023-05-20T02:28:28.728Z,3.03
2023-05-20T02:31:30.479Z,2.63
2023-05-20T02:34:33.214Z,2.70
2023-05-20T02:37:35.175Z,3.65
2023-05-20T02:40:37.047Z,2.80
2023-05-20T02:43:39.077Z,2.63
2023-05-20T02:46:40.818Z,2.75
2023-05-20T02:49:42.432Z,2.67
2023-05-20T02:52:45.602Z,2.83
2023-05-20T02:55:47.999Z,2.90
2023-05-20T02:58:49.594Z,3.00
2023-05-20T03:01:51.367Z,3.05
2023-05-20T03:04:54.942Z,2.65
2023-05-20T03:07:56.672Z,3.03
2023-05-20T03:10:58.465Z,2.75
2023-05-20T03:14:00.068Z,2.65
2023-05-20T03:17:01.710Z,2.80
2023-05-20T03:20:07.324Z,2.80
2023-05-20T03:23:09.836Z,2.85
2023-05-20T03:26:12.110Z,2.92
2023-05-20T03:29:14.626Z,3.30
2023-05-20T03:32:16.730Z,3.03
2023-05-20T03:35:18.581Z,3.05
2023-05-20T03:38:20.270Z,3.15
2023-05-20T03:41:23.223Z,2.90
2023-05-20T03:44:24.876Z,3.30
2023-05-20T03:47:27.263Z,2.97
2023-05-20T03:50:28.978Z,3.30
2023-05-20T03:53:30.940Z,3.40
2023-05-20T03:56:32.619Z,3.50
2023-05-20T03:59:34.522Z,3.00
2023-05-20T04:02:36.421Z,3.20
2023-05-20T04:05:38.642Z,3.43
2023-05-20T04:08:48.533Z,3.22
2023-05-20T04:11:50.190Z,3.30
2023-05-20T04:14:52.669Z,2.97
2023-05-20T04:17:54.874Z,3.30
2023-05-20T04:20:56.826Z,3.28
2023-05-20T04:23:58.959Z,3.20
2023-05-20T04:27:00.727Z,3.30
2023-05-20T04:30:05.160Z,3.33
2023-05-20T04:33:09.258Z,3.50
2023-05-20T04:36:16.214Z,3.17
2023-05-20T04:39:20.444Z,3.15
2023-05-20T04:42:26.345Z,3.38
2023-05-20T04:45:27.970Z,3.13
2023-05-20T04:48:30.013Z,3.45
2023-05-20T04:51:31.746Z,3.30
2023-05-20T04:54:33.364Z,3.40
2023-05-20T04:57:35.302Z,4.20
2023-05-20T05:00:36.924Z,3.55
2023-05-20T05:03:38.583Z,3.50
2023-05-20T05:06:40.245Z,3.63
2023-05-20T05:09:42.299Z,3.60
2023-05-20T05:12:44.098Z,3.80
2023-05-20T05:15:45.831Z,3.72
2023-05-20T05:18:47.595Z,3.50
2023-05-20T05:21:49.368Z,3.55
2023-05-20T05:24:51.510Z,3.60
2023-05-20T05:27:55.257Z,3.63
2023-05-20T05:30:58.108Z,4.03
2023-05-20T05:34:01.373Z,3.33
2023-05-20T05:37:03.193Z,3.53
2023-05-20T05:40:07.078Z,3.47
2023-05-20T05:43:09.114Z,4.18
2023-05-20T05:46:11.637Z,4.55
2023-05-20T05:49:13.468Z,4.03
2023-05-20T05:52:15.340Z,5.00
2023-05-20T05:55:18.406Z,4.43
2023-05-20T05:58:20.931Z,4.07
2023-05-20T06:01:22.666Z,4.60
2023-05-20T06:04:24.445Z,4.13
2023-05-20T06:07:30.188Z,4.20
2023-05-20T06:10:32.303Z,4.37
2023-05-20T06:13:35.944Z,4.20
2023-05-20T06:16:37.629Z,4.22
2023-05-20T06:19:39.410Z,4.60
2023-05-20T06:22:44.868Z,4.53
2023-05-20T06:25:48.690Z,4.95
2023-05-20T06:28:50.433Z,4.63
2023-05-20T06:31:52.132Z,4.57
2023-05-20T06:34:53.788Z,5.22
2023-05-20T06:37:55.593Z,5.20
2023-05-20T06:40:57.396Z,5.38
2023-05-20T06:43:59.206Z,5.10
2023-05-20T06:47:23.828Z,4.88
2023-05-20T06:53:29.882Z,4.63
2023-05-20T06:56:32.119Z,4.80
2023-05-20T06:59:36.311Z,4.97
2023-05-20T07:02:40.597Z,5.50
2023-05-20T07:05:42.490Z,4.97
2023-05-20T07:08:45.805Z,5.20
2023-05-20T07:11:47.996Z,5.10
2023-05-20T07:14:49.822Z,5.00
2023-05-20T07:17:51.962Z,5.40
2023-05-20T07:20:53.758Z,5.25
2023-05-20T07:24:19.166Z,5.28
2023-05-20T07:27:20.822Z,5.68
2023-05-20T07:30:22.973Z,5.75
2023-05-20T07:33:40.257Z,5.82
2023-05-20T07:36:42.049Z,5.93
2023-05-20T07:39:43.670Z,6.10
2023-05-20T07:42:45.954Z,5.90
2023-05-20T07:45:47.808Z,5.13
2023-05-20T07:48:49.560Z,5.80
2023-05-20T07:51:52.171Z,5.43
2023-05-20T07:54:54.344Z,5.90
2023-05-20T07:57:55.983Z,5.95
2023-05-20T08:00:58.858Z,6.07
2023-05-20T08:04:01.208Z,6.13
2023-05-20T08:07:03.918Z,6.38
2023-05-20T08:10:15.815Z,7.00
2023-05-20T08:13:19.110Z,6.13
2023-05-20T08:16:22.081Z,6.28
2023-05-20T08:19:24.724Z,6.25
2023-05-20T08:22:26.420Z,5.75
2023-05-20T08:25:28.051Z,6.45
2023-05-20T08:28:31.095Z,5.85
2023-05-20T08:34:37.155Z,6.50
2023-05-20T08:37:38.918Z,6.68
2023-05-20T08:40:40.788Z,6.18
2023-05-20T08:43:45.016Z,6.72
2023-05-20T08:46:47.898Z,9.95
2023-05-20T08:52:54.714Z,8.45
2023-05-20T08:56:01.521Z,7.68
2023-05-20T08:59:03.845Z,7.88
2023-05-20T09:02:05.550Z,8.03
2023-05-20T09:05:08.821Z,8.80
2023-05-20T09:08:11.865Z,8.85
2023-05-20T09:11:13.612Z,7.63
2023-05-20T09:14:15.213Z,7.03
2023-05-20T09:17:18.392Z,7.32
2023-05-20T09:20:23.074Z,7.93
2023-05-20T09:23:30.260Z,7.43
2023-05-20T09:26:33.527Z,7.20
2023-05-20T09:32:39.293Z,6.93
2023-05-20T09:35:43.652Z,7.35
2023-05-20T09:38:47.482Z,7.13
2023-05-20T09:42:03.934Z,7.05
2023-05-20T09:45:11.525Z,7.00
2023-05-20T09:48:14.065Z,7.53
2023-05-20T09:51:16.761Z,6.97
2023-05-20T09:54:19.677Z,7.25
2023-05-20T09:57:21.506Z,6.90
2023-05-20T10:00:23.127Z,7.32
2023-05-20T10:03:28.778Z,6.95
2023-05-20T10:07:09.038Z,7.15
2023-05-20T10:10:32.107Z,7.32
2023-05-20T10:13:33.706Z,6.72
2023-05-20T10:17:04.043Z,7.80
2023-05-20T10:20:11.737Z,7.20
2023-05-20T10:23:23.976Z,6.85
2023-05-20T10:26:43.347Z,7.82
2023-05-20T10:29:51.420Z,7.32
2023-05-20T10:32:56.665Z,7.43
2023-05-20T10:36:00.178Z,7.32
2023-05-20T10:39:04.277Z,7.90
2023-05-20T10:42:10.143Z,7.38
2023-05-20T10:45:12.552Z,7.53
2023-05-20T10:48:43.118Z,6.93
2023-05-20T10:51:46.911Z,7.30
2023-05-20T10:54:59.554Z,6.93
2023-05-20T10:58:01.578Z,6.87
2023-05-20T11:01:03.565Z,7.13
2023-05-20T11:04:06.571Z,7.43
2023-05-20T11:07:08.402Z,7.20
2023-05-20T11:10:10.508Z,7.07
2023-05-20T11:13:14.215Z,6.85
2023-05-20T11:16:15.954Z,6.82
2023-05-20T11:19:19.018Z,8.30
2023-05-20T11:22:20.744Z,6.90
2023-05-20T11:25:25.788Z,7.68
2023-05-20T11:28:27.447Z,7.15
2023-05-20T11:31:29.105Z,7.85
2023-05-20T11:34:38.172Z,7.40
2023-05-20T11:37:42.836Z,7.03
2023-05-20T11:40:55.687Z,7.30
2023-05-20T11:47:01.598Z,6.75
2023-05-20T11:50:04.881Z,6.53
2023-05-20T11:53:09.103Z,7.13
2023-05-20T11:56:10.738Z,6.80
2023-05-20T11:59:12.455Z,7.47
2023-05-20T12:02:15.990Z,8.18
2023-05-20T12:05:18.044Z,9.18
2023-05-20T12:08:19.649Z,6.85
2023-05-20T12:11:21.966Z,7.38
2023-05-20T12:14:23.636Z,7.68
2023-05-20T12:17:25.390Z,8.77
2023-05-20T12:20:27.120Z,7.63
2023-05-20T12:23:30.768Z,7.50
2023-05-20T12:26:33.197Z,7.32
2023-05-20T12:29:34.755Z,6.95
2023-05-20T12:32:37.848Z,7.10
2023-05-20T12:35:41.535Z,7.07
2023-05-20T12:38:43.341Z,7.38
2023-05-20T12:41:45.152Z,7.30
2023-05-20T12:44:46.799Z,7.35
2023-05-20T12:47:48.838Z,7.30
2023-05-20T12:50:50.585Z,8.00
2023-05-20T12:53:52.204Z,7.35
2023-05-20T12:56:54.917Z,7.13
2023-05-20T12:59:56.693Z,6.80
2023-05-20T13:02:58.410Z,7.38
2023-05-20T13:06:00.200Z,7.28
2023-05-20T13:09:01.877Z,6.80
2023-05-20T13:12:03.596Z,7.18
2023-05-20T13:15:05.990Z,6.47
2023-05-20T13:18:08.398Z,7.03
2023-05-20T13:21:10.056Z,6.90
2023-05-20T13:24:11.682Z,6.90
2023-05-20T13:27:16.107Z,7.30
2023-05-20T13:30:17.767Z,6.68
2023-05-20T13:33:19.432Z,6.43
2023-05-20T13:36:21.667Z,6.90
2023-05-20T13:39:23.377Z,6.88
2023-05-20T13:42:25.384Z,6.60
2023-05-20T13:45:27.573Z,6.63
2023-05-20T13:48:29.511Z,7.00
2023-05-20T13:51:31.717Z,6.65
2023-05-20T13:54:33.290Z,6.60
2023-05-20T13:57:34.898Z,6.82
2023-05-20T14:00:37.289Z,6.38
2023-05-20T14:03:40.983Z,6.43
2023-05-20T14:06:42.717Z,6.25
2023-05-20T14:09:44.369Z,6.38
2023-05-20T14:12:48.193Z,6.90
2023-05-20T14:15:50.994Z,6.18
2023-05-20T14:18:52.678Z,6.78
2023-05-20T14:21:54.387Z,6.90
2023-05-20T14:24:56.341Z,7.18
2023-05-20T14:27:57.985Z,6.50
2023-05-20T14:30:59.611Z,7.00
2023-05-20T14:34:01.421Z,6.30
2023-05-20T14:37:09.707Z,7.07
2023-05-20T14:40:11.673Z,6.15
2023-05-20T14:43:13.243Z,6.57
2023-05-20T14:46:15.059Z,6.25
2023-05-20T14:49:17.094Z,6.40
2023-05-20T14:52:19.125Z,7.73
2023-05-20T14:55:20.768Z,7.82
2023-05-20T14:58:22.722Z,7.40
2023-05-20T15:01:24.367Z,8.23
2023-05-20T15:04:27.212Z,8.15
2023-05-20T15:07:29.315Z,8.18
2023-05-20T15:10:30.935Z,8.07
2023-05-20T15:13:32.972Z,7.60
2023-05-20T15:16:34.651Z,7.40
2023-05-20T15:19:39.681Z,8.02
2023-05-20T15:22:45.751Z,7.40
2023-05-20T15:25:48.577Z,7.28
2023-05-20T15:28:50.846Z,7.43
2023-05-20T15:31:52.461Z,7.20
2023-05-20T15:34:54.047Z,7.03
2023-05-20T15:37:55.752Z,7.63
2023-05-20T15:40:57.401Z,7.43
2023-05-20T15:43:59.007Z,7.47
2023-05-20T15:47:00.667Z,7.45
2023-05-20T15:50:05.293Z,7.80
2023-05-20T15:53:08.245Z,8.38
2023-05-20T15:59:12.748Z,8.02
2023-05-20T16:02:14.422Z,8.55
2023-05-20T16:05:16.130Z,7.82
2023-05-20T16:08:17.742Z,7.95
2023-05-20T16:11:19.411Z,7.75
2023-05-20T16:14:21.130Z,8.75
2023-05-20T16:17:22.925Z,8.15
2023-05-20T16:20:24.645Z,8.00
2023-05-20T16:23:26.251Z,8.02
2023-05-20T16:26:31.390Z,9.30
2023-05-20T16:29:33.276Z,8.82
2023-05-20T16:32:34.935Z,8.40
2023-05-20T16:35:36.576Z,8.45
2023-05-20T16:38:39.181Z,8.50
2023-05-20T16:41:41.499Z,9.38
2023-05-20T16:44:43.151Z,9.65
2023-05-20T16:47:44.761Z,9.00
2023-05-20T16:50:46.614Z,8.07
2023-05-20T16:53:48.382Z,8.73
2023-05-20T16:56:50.885Z,8.85
2023-05-20T16:59:52.633Z,8.63
2023-05-20T17:02:54.457Z,8.65
2023-05-20T17:05:56.153Z,8.60
2023-05-20T17:08:59.536Z,8.88
2023-05-20T17:12:01.202Z,8.68
2023-05-20T17:15:03.006Z,12.60
2023-05-20T17:18:04.702Z,9.30
2023-05-20T17:21:06.578Z,9.57
2023-05-20T17:24:08.185Z,9.80
2023-05-20T17:27:09.890Z,9.57
2023-05-20T17:30:11.957Z,9.80
2023-05-20T17:33:13.694Z,9.80
2023-05-20T17:36:16.430Z,9.32
2023-05-20T17:39:18.151Z,10.32
2023-05-20T17:42:19.752Z,9.85
2023-05-20T17:45:21.434Z,9.43
2023-05-20T17:48:23.044Z,10.52
2023-05-20T17:51:24.664Z,10.30
2023-05-20T17:54:26.449Z,10.68
2023-05-20T17:57:28.458Z,10.32
2023-05-20T18:00:30.106Z,10.00
2023-05-20T18:03:32.091Z,10.43
2023-05-20T18:06:36.316Z,10.90
2023-05-20T18:09:38.073Z,10.02
2023-05-20T18:12:39.976Z,9.98
2023-05-20T18:15:41.620Z,10.52
2023-05-20T18:18:43.780Z,11.52
2023-05-20T18:21:45.412Z,11.13
2023-05-20T18:24:47.128Z,10.68
2023-05-20T18:27:48.799Z,10.30
2023-05-20T18:30:50.586Z,10.07
2023-05-20T18:33:52.220Z,11.00
2023-05-20T18:36:53.982Z,10.40
2023-05-20T18:39:57.993Z,10.25
2023-05-20T18:42:59.992Z,10.50
2023-05-20T18:46:01.804Z,10.00
2023-05-20T18:49:03.502Z,10.80
2023-05-20T18:52:05.504Z,10.55
2023-05-20T18:55:07.638Z,11.45
2023-05-20T18:58:09.298Z,9.90
2023-05-20T19:01:11.182Z,10.25
2023-05-20T19:04:12.929Z,10.57
2023-05-20T19:07:14.634Z,11.27
2023-05-20T19:10:16.578Z,11.27
2023-05-20T19:13:18.215Z,10.48
2023-05-20T19:16:20.350Z,10.82
2023-05-20T19:19:25.010Z,11.20
2023-05-20T19:22:26.767Z,11.60
2023-05-20T19:25:28.428Z,10.07
2023-05-20T19:28:30.007Z,10.77
2023-05-20T19:31:31.648Z,13.40
2023-05-20T19:34:33.322Z,11.23
2023-05-20T19:37:34.995Z,11.50
2023-05-20T19:40:36.837Z,10.93
2023-05-20T19:43:38.457Z,11.05
2023-05-20T19:46:41.059Z,11.23
2023-05-20T19:49:42.785Z,12.48
2023-05-20T19:52:44.617Z,14.48
2023-05-20T19:55:47.205Z,12.95
2023-05-20T19:58:49.047Z,11.82
2023-05-20T20:01:51.533Z,11.93
2023-05-20T20:04:55.258Z,11.65
2023-05-20T20:07:56.922Z,11.55
2023-05-20T20:10:58.602Z,11.52
2023-05-20T20:14:00.260Z,11.90
2023-05-20T20:17:01.924Z,12.77
2023-05-20T20:20:10.126Z,12.43
2023-05-20T20:23:11.772Z,13.60
2023-05-20T20:26:13.957Z,12.75
2023-05-20T20:29:16.258Z,12.27
2023-05-20T20:32:19.415Z,11.83
2023-05-20T20:35:22.814Z,11.57
2023-05-20T20:38:26.765Z,12.68
2023-05-20T20:41:29.697Z,12.65
2023-05-20T20:44:32.594Z,14.23
2023-05-20T20:47:38.580Z,14.75
2023-05-20T20:50:41.609Z,13.38
2023-05-20T20:53:43.966Z,11.85
2023-05-20T20:56:47.133Z,11.10
2023-05-20T20:59:50.832Z,11.73
2023-05-20T21:02:53.736Z,12.00
2023-05-20T21:05:55.604Z,11.45
2023-05-20T21:09:01.950Z,10.50
2023-05-20T21:12:06.650Z,10.52
2023-05-20T21:15:09.959Z,10.55
2023-05-20T21:21:14.875Z,11.48
2023-05-20T21:24:16.520Z,11.50
2023-05-20T21:27:18.105Z,11.90
2023-05-20T21:30:20.110Z,11.52
2023-05-20T21:33:21.777Z,12.45
2023-05-20T21:36:23.497Z,11.05
2023-05-20T21:39:25.152Z,12.18
2023-05-20T21:42:26.944Z,11.55
2023-05-20T21:45:28.555Z,11.60
2023-05-20T21:48:30.281Z,11.20
2023-05-20T21:51:32.186Z,11.50
2023-05-20T21:54:33.823Z,10.82
2023-05-20T21:57:35.894Z,12.13
2023-05-20T22:00:37.519Z,12.07
2023-05-20T22:03:39.970Z,11.45
2023-05-20T22:06:41.884Z,11.55
2023-05-20T22:09:43.458Z,11.82
2023-05-20T22:12:45.701Z,11.77
2023-05-20T22:15:47.300Z,12.77
2023-05-20T22:18:49.596Z,12.25
2023-05-20T22:21:51.410Z,11.43
2023-05-20T22:24:53.012Z,11.43
2023-05-20T22:27:54.640Z,10.93
2023-05-20T22:30:56.271Z,10.30
2023-05-20T22:33:57.910Z,11.73
2023-05-20T22:36:59.893Z,11.38
2023-05-20T22:40:01.622Z,11.60
2023-05-20T22:43:03.227Z,11.90
2023-05-20T22:46:04.968Z,12.60
2023-05-20T22:49:06.658Z,13.73
2023-05-20T22:52:08.351Z,12.60
2023-05-20T22:55:11.618Z,11.15
2023-05-20T22:58:13.335Z,11.77
2023-05-20T23:01:16.757Z,12.55
2023-05-20T23:04:18.702Z,12.65
2023-05-20T23:07:20.388Z,11.80
2023-05-20T23:10:22.118Z,11.68
2023-05-20T23:13:23.909Z,11.43
2023-05-20T23:16:26.325Z,12.05
2023-05-20T23:19:28.107Z,12.30
2023-05-20T23:22:30.281Z,11.60
2023-05-20T23:25:32.079Z,11.55
2023-05-20T23:28:33.773Z,13.05
2023-05-20T23:31:35.432Z,11.82
2023-05-20T23:34:37.085Z,12.30
2023-05-20T23:37:40.997Z,11.95
2023-05-20T23:40:42.923Z,12.15
2023-05-20T23:43:44.601Z,12.27
2023-05-20T23:46:46.318Z,12.30
2023-05-20T23:49:49.347Z,11.82
2023-05-20T23:52:51.235Z,11.60
2023-05-20T23:55:52.858Z,11.40
2023-05-20T23:58:54.467Z,11.00
